Time;durP1;ratioP1;P1;durP2;ratioP2;P2;SDS_P1;SDS_P2;PMS_P1;PMS_P2;Temp;Humidity;BMP_temperature;BMP_pressure;BME280_temperature;BME280_humidity;BME280_pressure;Samples;Min_cycle;Max_cycle;Signal;HPM_P1;HPM_P2
2024/01/30 00:00:25;;;;;;;11.30;9.50;;;5.60;99.90;;;;;;5014954;28;20497;-62
2024/01/30 00:02:53;;;;;;;11.53;10.33;;;5.60;99.90;;;;;;5017891;28;20490;-61
2024/01/30 00:05:21;;;;;;;11.23;9.90;;;5.50;99.90;;;;;;5015490;28;20566;-61
2024/01/30 00:07:49;;;;;;;12.00;10.53;;;5.50;99.90;;;;;;5021681;28;21185;-61
2024/01/30 00:10:17;;;;;;;11.87;10.70;;;5.50;99.90;;;;;;5018786;28;20487;-61
2024/01/30 00:12:46;;;;;;;12.60;10.73;;;5.40;99.90;;;;;;5021944;28;20495;-62
2024/01/30 00:15:15;;;;;;;11.00;10.00;;;5.40;99.90;;;;;;5016851;28;20475;-61
2024/01/30 00:17:43;;;;;;;10.90;9.50;;;5.40;99.90;;;;;;5019082;28;20880;-61
2024/01/30 00:20:12;;;;;;;12.90;11.60;;;5.40;99.90;;;;;;5019632;28;20477;-62
2024/01/30 00:22:40;;;;;;;10.13;9.23;;;5.30;99.90;;;;;;5021630;28;20887;-61
2024/01/30 00:25:08;;;;;;;11.90;10.13;;;5.30;99.90;;;;;;5019470;28;20525;-61
2024/01/30 00:27:37;;;;;;;11.23;10.07;;;5.30;99.90;;;;;;5021838;28;20480;-61
2024/01/30 00:30:07;;;;;;;9.63;8.73;;;5.30;99.90;;;;;;5019329;28;20443;-61
2024/01/30 00:32:35;;;;;;;11.73;9.80;;;5.30;99.90;;;;;;5021332;28;20581;-62
2024/01/30 00:35:04;;;;;;;11.93;10.17;;;5.30;99.90;;;;;;5018674;28;20477;-62
2024/01/30 00:37:32;;;;;;;10.83;9.80;;;5.30;99.90;;;;;;5023148;28;20487;-61
2024/01/30 00:40:00;;;;;;;11.00;9.90;;;5.30;99.90;;;;;;5020103;28;20541;-61
2024/01/30 00:42:28;;;;;;;12.97;10.30;;;5.30;99.90;;;;;;5020452;28;20506;-61
2024/01/30 00:44:56;;;;;;;10.70;9.40;;;5.20;99.90;;;;;;5015416;28;20500;-61
2024/01/30 00:47:25;;;;;;;9.97;9.00;;;5.20;99.90;;;;;;5014957;28;21347;-61
2024/01/30 00:49:54;;;;;;;11.47;10.30;;;5.20;99.90;;;;;;5015556;28;20561;-61
2024/01/30 00:52:22;;;;;;;11.13;10.10;;;5.10;99.90;;;;;;4998808;28;20480;-62
2024/01/30 00:54:50;;;;;;;10.50;9.33;;;5.10;99.90;;;;;;5001332;28;20954;-61
2024/01/30 00:57:18;;;;;;;10.63;9.60;;;5.10;99.90;;;;;;5000922;28;20483;-61
2024/01/30 00:59:46;;;;;;;12.00;10.70;;;5.10;99.90;;;;;;5002621;28;20570;-61
2024/01/30 01:02:17;;;;;;;10.33;9.20;;;5.10;99.90;;;;;;5004387;28;20929;-61
2024/01/30 01:04:46;;;;;;;11.53;10.33;;;5.00;99.90;;;;;;5006505;28;20472;-61
2024/01/30 01:07:14;;;;;;;11.97;10.20;;;5.00;99.90;;;;;;5001445;28;20468;-61
2024/01/30 01:09:42;;;;;;;11.60;9.80;;;5.00;99.90;;;;;;5001142;28;20472;-61
2024/01/30 01:12:10;;;;;;;12.60;10.17;;;5.00;99.90;;;;;;5024995;28;21041;-61
2024/01/30 01:14:38;;;;;;;10.87;9.77;;;5.00;99.90;;;;;;5017122;28;21064;-61
2024/01/30 01:17:06;;;;;;;11.97;9.67;;;4.90;99.90;;;;;;5026338;28;20483;-61
2024/01/30 01:19:34;;;;;;;10.83;9.73;;;4.90;99.90;;;;;;5026645;28;20506;-61
2024/01/30 01:22:04;;;;;;;10.40;9.30;;;4.90;99.90;;;;;;5016851;28;20479;-61
2024/01/30 01:24:32;;;;;;;10.97;9.87;;;4.90;99.90;;;;;;5021292;28;20479;-61
2024/01/30 01:27:00;;;;;;;10.43;9.40;;;4.90;99.90;;;;;;5025080;28;20628;-61
2024/01/30 01:29:29;;;;;;;10.60;9.50;;;4.90;99.90;;;;;;5021860;28;20552;-61
2024/01/30 01:31:57;;;;;;;11.07;10.00;;;4.90;99.90;;;;;;5030622;28;20487;-61
2024/01/30 01:34:25;;;;;;;12.43;9.90;;;4.90;99.90;;;;;;5025304;28;20463;-61
2024/01/30 01:36:57;;;;;;;12.33;9.53;;;4.90;99.90;;;;;;5031098;28;20510;-61
2024/01/30 01:39:27;;;;;;;10.10;9.20;;;4.90;99.90;;;;;;5014688;28;20471;-61
2024/01/30 01:41:55;;;;;;;13.20;10.30;;;4.90;99.90;;;;;;5018059;28;20582;-61
2024/01/30 01:44:23;;;;;;;11.50;9.50;;;4.90;99.90;;;;;;5016965;28;20558;-61
2024/01/30 01:46:52;;;;;;;9.97;8.63;;;4.90;99.90;;;;;;5017568;28;20493;-61
2024/01/30 01:49:21;;;;;;;11.70;9.40;;;4.90;99.90;;;;;;5019033;28;20471;-61
2024/01/30 01:51:51;;;;;;;9.60;8.60;;;4.90;99.90;;;;;;5019784;28;20576;-61
2024/01/30 01:54:20;;;;;;;10.10;9.10;;;4.90;99.90;;;;;;5022453;28;20810;-61
2024/01/30 01:56:49;;;;;;;9.77;8.77;;;5.00;99.90;;;;;;5014432;28;20554;-61
2024/01/30 01:59:18;;;;;;;10.00;9.03;;;5.00;99.90;;;;;;5020003;28;20977;-61
2024/01/30 02:01:49;;;;;;;9.40;8.50;;;5.00;99.90;;;;;;5020383;28;20585;-61
2024/01/30 02:04:17;;;;;;;9.67;8.70;;;5.00;99.90;;;;;;5015344;28;20474;-60
2024/01/30 02:06:45;;;;;;;9.90;8.90;;;5.00;99.90;;;;;;5010980;28;20971;-61
2024/01/30 02:09:14;;;;;;;12.03;9.77;;;5.00;99.90;;;;;;5016505;28;20528;-61
2024/01/30 02:11:42;;;;;;;10.47;8.23;;;5.00;99.90;;;;;;4996991;28;20605;-61
2024/01/30 02:14:11;;;;;;;10.03;9.03;;;5.00;99.90;;;;;;4992251;28;20461;-61
2024/01/30 02:16:39;;;;;;;10.03;9.13;;;5.00;99.90;;;;;;5001443;28;20479;-61
2024/01/30 02:19:07;;;;;;;9.47;8.57;;;5.00;99.90;;;;;;4994900;28;20470;-61
2024/01/30 02:21:37;;;;;;;10.23;8.80;;;5.00;99.90;;;;;;5012886;28;20491;-61
2024/01/30 02:24:06;;;;;;;9.80;8.90;;;5.00;99.90;;;;;;5014993;28;20495;-61
2024/01/30 02:26:34;;;;;;;9.70;8.70;;;5.10;99.90;;;;;;5020474;28;20471;-61
2024/01/30 02:29:02;;;;;;;9.30;8.10;;;5.00;99.90;;;;;;5021634;28;20610;-62
2024/01/30 02:31:30;;;;;;;9.37;8.50;;;5.00;99.90;;;;;;5017881;28;20996;-61
2024/01/30 02:33:58;;;;;;;12.17;10.27;;;5.10;99.90;;;;;;5013043;28;20988;-61
2024/01/30 02:36:26;;;;;;;12.13;9.67;;;5.10;99.90;;;;;;5017520;28;20988;-61
2024/01/30 02:38:55;;;;;;;10.93;9.17;;;5.10;99.90;;;;;;5019872;28;20566;-61
2024/01/30 02:41:23;;;;;;;9.47;8.47;;;5.10;99.90;;;;;;5017512;28;20483;-61
2024/01/30 02:43:51;;;;;;;9.47;8.57;;;5.10;99.90;;;;;;5016094;28;20468;-62
2024/01/30 02:46:19;;;;;;;9.50;8.60;;;5.10;99.90;;;;;;5021291;28;20558;-62
2024/01/30 02:48:47;;;;;;;9.20;8.30;;;5.10;99.90;;;;;;5015052;28;20851;-62
2024/01/30 02:51:16;;;;;;;9.87;8.60;;;5.10;99.90;;;;;;5017596;28;20881;-61
2024/01/30 02:53:43;;;;;;;9.90;9.00;;;5.10;99.90;;;;;;5014640;28;20472;-61
2024/01/30 02:56:13;;;;;;;9.97;8.97;;;5.10;99.90;;;;;;5018641;28;20582;-61
2024/01/30 02:58:42;;;;;;;10.73;9.70;;;5.10;99.90;;;;;;5016234;28;20539;-63
2024/01/30 03:01:10;;;;;;;10.70;9.27;;;5.10;99.90;;;;;;5021886;28;20498;-61
2024/01/30 03:03:39;;;;;;;9.57;8.67;;;5.10;99.90;;;;;;5015994;28;20471;-61
2024/01/30 03:06:08;;;;;;;10.23;9.20;;;5.10;99.90;;;;;;5018310;28;20968;-61
2024/01/30 03:08:36;;;;;;;10.20;9.30;;;5.10;99.90;;;;;;5015308;28;20467;-61
2024/01/30 03:11:04;;;;;;;11.23;9.77;;;5.10;99.90;;;;;;5020032;28;20491;-62
2024/01/30 03:13:33;;;;;;;9.50;8.60;;;5.00;99.90;;;;;;5015236;28;20531;-61
2024/01/30 03:16:01;;;;;;;11.73;8.87;;;5.00;99.90;;;;;;5017710;28;20480;-62
2024/01/30 03:18:29;;;;;;;10.40;9.40;;;5.00;99.90;;;;;;5017765;28;20494;-62
2024/01/30 03:20:57;;;;;;;11.07;8.93;;;5.00;99.90;;;;;;5019774;28;20997;-62
2024/01/30 03:23:25;;;;;;;10.13;9.10;;;5.00;99.90;;;;;;5015430;28;20557;-62
2024/01/30 03:25:53;;;;;;;10.67;9.60;;;5.00;99.90;;;;;;5014304;28;21836;-61
2024/01/30 03:28:21;;;;;;;10.73;9.73;;;5.00;99.90;;;;;;5017664;28;20467;-62
2024/01/30 03:30:50;;;;;;;11.27;9.43;;;5.00;99.90;;;;;;5016043;28;21102;-61
2024/01/30 03:33:18;;;;;;;10.50;9.33;;;5.00;99.90;;;;;;5019721;28;20865;-63
2024/01/30 03:35:46;;;;;;;10.73;9.73;;;5.00;99.90;;;;;;5020642;28;20475;-62
2024/01/30 03:38:14;;;;;;;11.00;10.00;;;4.90;99.90;;;;;;5019971;28;20964;-62
2024/01/30 03:40:42;;;;;;;15.00;10.13;;;5.00;99.90;;;;;;5014060;28;20666;-62
2024/01/30 03:43:10;;;;;;;11.37;10.20;;;5.00;99.90;;;;;;5019759;28;20562;-62
2024/01/30 03:45:38;;;;;;;12.80;10.50;;;5.00;99.90;;;;;;5020185;28;20478;-62
2024/01/30 03:48:08;;;;;;;10.53;9.53;;;5.00;99.90;;;;;;5019930;28;20471;-61
2024/01/30 03:50:36;;;;;;;10.60;9.57;;;5.00;99.90;;;;;;5015907;28;20569;-62
2024/01/30 03:53:04;;;;;;;10.77;9.50;;;5.00;99.90;;;;;;5015793;28;20881;-62
2024/01/30 03:55:32;;;;;;;10.20;8.80;;;5.00;99.90;;;;;;5022438;28;20809;-63
2024/01/30 03:58:00;;;;;;;10.47;9.17;;;5.00;99.90;;;;;;5021814;28;20478;-62
2024/01/30 04:00:28;;;;;;;11.30;9.93;;;5.00;99.90;;;;;;5019904;28;20864;-62
2024/01/30 04:02:56;;;;;;;11.03;9.93;;;5.00;99.90;;;;;;5019164;28;21087;-62
2024/01/30 04:05:26;;;;;;;10.43;9.43;;;5.00;99.90;;;;;;5018107;28;20563;-61
2024/01/30 04:07:54;;;;;;;11.40;10.30;;;5.00;99.90;;;;;;5016618;28;20481;-62
2024/01/30 04:10:22;;;;;;;10.87;9.80;;;5.00;99.90;;;;;;5018063;28;20861;-62
2024/01/30 04:12:50;;;;;;;10.90;9.77;;;5.00;99.90;;;;;;5020186;28;20502;-62
2024/01/30 04:15:18;;;;;;;12.60;10.13;;;4.90;99.90;;;;;;5020227;28;20848;-62
2024/01/30 04:17:46;;;;;;;12.27;10.97;;;5.00;99.90;;;;;;5016933;28;20843;-62
2024/01/30 04:20:15;;;;;;;11.93;10.73;;;5.00;99.90;;;;;;5018732;28;20472;-62
2024/01/30 04:22:46;;;;;;;10.90;9.80;;;4.90;99.90;;;;;;5010294;28;20578;-63
2024/01/30 04:25:14;;;;;;;12.77;11.13;;;5.00;99.90;;;;;;5016365;28;20538;-62
2024/01/30 04:27:43;;;;;;;11.53;10.40;;;4.90;99.90;;;;;;5016796;28;20555;-62
2024/01/30 04:30:11;;;;;;;13.10;10.63;;;4.90;99.90;;;;;;5017745;28;20487;-61
2024/01/30 04:32:39;;;;;;;11.40;10.10;;;4.90;99.90;;;;;;5011700;28;20503;-62
2024/01/30 04:35:08;;;;;;;12.60;10.50;;;4.90;99.90;;;;;;5015337;28;20501;-62
2024/01/30 04:37:39;;;;;;;11.50;10.30;;;5.00;99.90;;;;;;5019153;28;20924;-62
2024/01/30 04:40:09;;;;;;;11.30;10.20;;;4.90;99.90;;;;;;5013198;28;20557;-62
2024/01/30 04:42:37;;;;;;;12.50;10.57;;;4.90;99.90;;;;;;5015136;28;20849;-62
2024/01/30 04:45:07;;;;;;;12.73;10.47;;;4.90;99.90;;;;;;5019585;28;20548;-61
2024/01/30 04:47:35;;;;;;;11.77;10.67;;;4.90;99.90;;;;;;5014389;28;20548;-62
2024/01/30 04:50:04;;;;;;;12.10;10.90;;;4.90;99.90;;;;;;5016857;28;20471;-62
2024/01/30 04:52:33;;;;;;;12.23;11.00;;;4.90;99.90;;;;;;5017297;28;20491;-62
2024/01/30 04:55:01;;;;;;;11.60;10.40;;;4.80;99.90;;;;;;5016485;28;20480;-62
2024/01/30 04:57:30;;;;;;;12.30;10.37;;;4.80;99.90;;;;;;5018091;28;20621;-62
2024/01/30 04:59:58;;;;;;;11.50;10.40;;;4.80;99.90;;;;;;5017449;28;20471;-62
2024/01/30 05:02:26;;;;;;;11.23;10.07;;;4.80;99.90;;;;;;4996772;28;20508;-62
2024/01/30 05:04:54;;;;;;;12.80;11.40;;;4.80;99.90;;;;;;4992843;28;20532;-62
2024/01/30 05:07:22;;;;;;;13.20;11.33;;;4.80;99.90;;;;;;4997706;28;21953;-62
2024/01/30 05:09:50;;;;;;;12.80;11.10;;;4.80;99.90;;;;;;4999137;28;20467;-62
2024/01/30 05:12:20;;;;;;;12.00;10.67;;;4.80;99.90;;;;;;4995540;28;20504;-62
2024/01/30 05:14:49;;;;;;;13.70;11.37;;;4.80;99.90;;;;;;4996323;28;20650;-62
2024/01/30 05:17:17;;;;;;;11.80;10.60;;;4.80;99.90;;;;;;4995691;28;20552;-62
2024/01/30 05:19:45;;;;;;;12.30;11.13;;;4.80;99.90;;;;;;4995592;28;20475;-61
2024/01/30 05:22:15;;;;;;;12.90;11.10;;;4.80;99.90;;;;;;4995928;28;20500;-62
2024/01/30 05:24:43;;;;;;;12.10;10.90;;;4.80;99.90;;;;;;4997967;28;20979;-62
2024/01/30 05:27:13;;;;;;;12.13;10.97;;;4.80;99.90;;;;;;4994622;28;20852;-62
2024/01/30 05:29:41;;;;;;;11.97;10.77;;;4.80;99.90;;;;;;4993861;28;20471;-62
2024/01/30 05:32:11;;;;;;;12.73;10.33;;;4.80;99.90;;;;;;4986581;28;20575;-62
2024/01/30 05:34:39;;;;;;;13.30;11.67;;;4.80;99.90;;;;;;4997565;28;21209;-62
2024/01/30 05:37:07;;;;;;;12.07;10.90;;;4.80;99.90;;;;;;4989060;28;20479;-62
2024/01/30 05:39:35;;;;;;;13.40;12.00;;;4.80;99.90;;;;;;5001178;28;20563;-62
2024/01/30 05:42:03;;;;;;;12.50;11.20;;;4.90;99.90;;;;;;5001711;28;20635;-62
2024/01/30 05:44:31;;;;;;;12.83;11.53;;;4.90;99.90;;;;;;4996431;28;20479;-62
2024/01/30 05:46:59;;;;;;;13.93;12.33;;;4.90;99.90;;;;;;4997205;28;20492;-61
2024/01/30 05:49:29;;;;;;;13.70;11.93;;;4.80;99.90;;;;;;4987886;28;20468;-62
2024/01/30 05:51:57;;;;;;;13.23;11.90;;;4.90;99.90;;;;;;4989218;28;20940;-62
2024/01/30 05:54:25;;;;;;;14.10;11.87;;;4.90;99.90;;;;;;4998569;28;20503;-61
2024/01/30 05:56:53;;;;;;;15.60;12.53;;;4.90;99.90;;;;;;4999033;28;20594;-62
2024/01/30 05:59:21;;;;;;;14.23;12.80;;;4.90;99.90;;;;;;4995825;28;20480;-62
2024/01/30 06:01:49;;;;;;;14.40;12.77;;;4.90;99.90;;;;;;4988059;28;20609;-63
2024/01/30 06:04:17;;;;;;;13.00;11.70;;;4.90;99.90;;;;;;4986978;28;20563;-62
2024/01/30 06:06:46;;;;;;;14.30;12.93;;;5.00;99.90;;;;;;4982164;28;20547;-62
2024/01/30 06:09:15;;;;;;;14.40;12.30;;;5.00;99.90;;;;;;4993977;28;20483;-62
2024/01/30 06:11:43;;;;;;;13.87;11.53;;;5.00;99.90;;;;;;4987632;28;20506;-62
2024/01/30 06:14:11;;;;;;;14.07;12.57;;;5.00;99.90;;;;;;4985283;28;20989;-61
2024/01/30 06:16:39;;;;;;;14.17;12.77;;;5.00;99.90;;;;;;4995137;28;20484;-61
2024/01/30 06:19:07;;;;;;;13.93;12.20;;;5.00;99.90;;;;;;4992491;28;20870;-61
2024/01/30 06:21:36;;;;;;;16.27;13.60;;;5.00;99.90;;;;;;5007700;28;20502;-61
2024/01/30 06:24:06;;;;;;;14.33;12.90;;;5.00;99.90;;;;;;5014281;28;20559;-61
2024/01/30 06:26:34;;;;;;;15.53;12.40;;;5.00;99.90;;;;;;5011840;28;20475;-61
2024/01/30 06:29:02;;;;;;;17.13;13.77;;;5.10;99.90;;;;;;5004895;28;20780;-61
2024/01/30 06:31:31;;;;;;;14.60;12.93;;;5.00;99.90;;;;;;4992962;28;20492;-61
2024/01/30 06:33:59;;;;;;;17.57;12.60;;;5.10;99.90;;;;;;4994659;28;20507;-61
2024/01/30 06:36:27;;;;;;;14.50;13.00;;;5.10;99.90;;;;;;5002373;28;20543;-61
2024/01/30 06:38:55;;;;;;;13.47;12.23;;;5.10;99.90;;;;;;5013129;28;20476;-61
2024/01/30 06:41:24;;;;;;;13.83;12.13;;;5.10;99.90;;;;;;4975667;28;1092127;-61
2024/01/30 06:43:53;;;;;;;18.57;13.30;;;5.20;99.90;;;;;;5000454;28;20288;-62
2024/01/30 06:46:21;;;;;;;14.23;12.73;;;5.20;99.90;;;;;;4997917;28;20600;-61
2024/01/30 06:48:49;;;;;;;16.07;12.70;;;5.20;99.90;;;;;;4996075;28;20535;-61
2024/01/30 06:51:17;;;;;;;14.80;13.30;;;5.20;99.90;;;;;;4997441;28;20496;-61
2024/01/30 06:53:45;;;;;;;15.50;13.00;;;5.20;99.90;;;;;;4994994;28;20539;-61
2024/01/30 06:56:13;;;;;;;14.33;12.83;;;5.20;99.90;;;;;;4995515;28;20503;-61
2024/01/30 06:58:42;;;;;;;13.50;12.20;;;5.30;99.90;;;;;;5002212;28;20484;-61
2024/01/30 07:01:11;;;;;;;14.10;12.80;;;5.30;99.90;;;;;;5000324;28;21065;-61
2024/01/30 07:03:39;;;;;;;14.80;12.63;;;5.30;99.90;;;;;;5000204;28;20468;-61
2024/01/30 07:06:08;;;;;;;14.73;13.20;;;5.20;99.90;;;;;;5000176;28;20479;-61
2024/01/30 07:08:37;;;;;;;15.63;12.60;;;5.20;99.90;;;;;;4997734;28;20472;-61
2024/01/30 07:11:05;;;;;;;14.37;12.87;;;5.20;99.90;;;;;;4994920;28;20492;-61
2024/01/30 07:13:33;;;;;;;14.00;12.50;;;5.20;99.90;;;;;;4997754;28;20560;-61
2024/01/30 07:16:02;;;;;;;16.13;12.13;;;5.30;99.90;;;;;;4998441;28;20476;-61
2024/01/30 07:18:30;;;;;;;17.30;12.60;;;5.30;99.90;;;;;;4996969;28;20477;-62
2024/01/30 07:20:58;;;;;;;14.37;12.83;;;5.20;99.90;;;;;;4993673;28;20493;-61
2024/01/30 07:23:26;;;;;;;13.53;12.23;;;5.20;99.90;;;;;;4993051;28;20553;-61
2024/01/30 07:25:54;;;;;;;16.20;13.30;;;5.20;99.90;;;;;;4998770;28;20555;-61
2024/01/30 07:28:22;;;;;;;15.17;13.60;;;5.30;99.90;;;;;;4994670;28;20468;-60
2024/01/30 07:30:53;;;;;;;13.90;12.50;;;5.30;99.90;;;;;;4994092;28;20485;-61
2024/01/30 07:33:23;;;;;;;14.13;12.73;;;5.30;99.90;;;;;;4998592;28;20484;-61
2024/01/30 07:35:53;;;;;;;17.07;13.00;;;5.30;99.90;;;;;;5002044;28;20570;-61
2024/01/30 07:38:21;;;;;;;15.77;13.00;;;5.30;99.90;;;;;;4990994;28;20471;-61
2024/01/30 07:40:49;;;;;;;15.57;13.13;;;5.30;99.90;;;;;;4998099;28;20713;-61
2024/01/30 07:43:17;;;;;;;18.00;14.33;;;5.30;99.90;;;;;;4998265;28;20542;-61
2024/01/30 07:45:45;;;;;;;14.37;12.87;;;5.30;99.90;;;;;;4995682;28;20530;-61
2024/01/30 07:48:13;;;;;;;16.13;13.60;;;5.30;99.90;;;;;;4988883;28;20612;-61
2024/01/30 07:50:43;;;;;;;13.67;12.23;;;5.40;99.90;;;;;;4995991;28;20499;-61
2024/01/30 07:53:11;;;;;;;15.03;13.43;;;5.40;99.90;;;;;;4998685;28;20486;-61
2024/01/30 07:55:39;;;;;;;15.70;13.07;;;5.40;99.90;;;;;;4994978;28;20499;-61
2024/01/30 07:58:07;;;;;;;16.40;13.70;;;5.50;99.90;;;;;;5001399;28;21194;-61
2024/01/30 08:00:35;;;;;;;16.63;13.60;;;5.50;99.90;;;;;;4995025;28;21815;-61
2024/01/30 08:03:03;;;;;;;14.00;12.60;;;5.50;99.90;;;;;;4997807;28;20654;-61
2024/01/30 08:05:31;;;;;;;14.60;13.10;;;5.50;99.90;;;;;;4995857;28;21029;-61
2024/01/30 08:08:01;;;;;;;15.10;13.20;;;5.60;99.90;;;;;;4995844;28;20503;-61
2024/01/30 08:10:29;;;;;;;16.50;13.80;;;5.60;99.90;;;;;;4998958;28;20595;-61
2024/01/30 08:12:57;;;;;;;15.70;14.00;;;5.60;99.90;;;;;;4997167;28;20896;-61
2024/01/30 08:15:25;;;;;;;16.80;15.17;;;5.70;99.90;;;;;;4995454;28;20576;-64
2024/01/30 08:17:57;;;;;;;14.67;13.07;;;5.70;99.90;;;;;;5000929;28;20488;-61
2024/01/30 08:20:25;;;;;;;15.70;14.17;;;5.70;99.90;;;;;;4996992;28;20500;-61
2024/01/30 08:22:54;;;;;;;18.13;13.27;;;5.70;99.90;;;;;;4997349;28;20594;-61
2024/01/30 08:25:23;;;;;;;17.70;13.60;;;5.70;99.90;;;;;;4995127;28;21293;-61
2024/01/30 08:27:51;;;;;;;14.40;12.90;;;5.70;99.90;;;;;;4995619;28;21194;-61
2024/01/30 08:30:19;;;;;;;17.07;14.10;;;5.70;99.90;;;;;;4991914;28;20794;-61
2024/01/30 08:32:48;;;;;;;15.60;13.50;;;5.80;99.90;;;;;;4997897;28;20876;-61
2024/01/30 08:35:16;;;;;;;14.80;13.30;;;5.70;99.90;;;;;;4993787;28;20488;-61
2024/01/30 08:37:44;;;;;;;17.53;13.90;;;5.80;99.90;;;;;;4995657;28;20973;-61
2024/01/30 08:40:13;;;;;;;16.63;13.47;;;5.80;99.90;;;;;;4995584;28;20575;-61
2024/01/30 08:42:42;;;;;;;21.90;14.37;;;5.80;99.90;;;;;;4997606;28;20606;-61
2024/01/30 08:45:11;;;;;;;14.63;13.13;;;5.80;99.90;;;;;;4995351;28;20620;-62
2024/01/30 08:47:39;;;;;;;15.67;14.07;;;5.90;99.90;;;;;;4995607;28;20624;-63
2024/01/30 08:50:08;;;;;;;18.20;14.50;;;5.90;99.90;;;;;;4996815;28;20480;-61
2024/01/30 08:52:36;;;;;;;14.97;13.27;;;5.90;99.90;;;;;;4999518;28;20512;-61
2024/01/30 08:55:05;;;;;;;21.83;14.50;;;5.90;99.90;;;;;;4997714;28;21577;-61
2024/01/30 08:57:33;;;;;;;15.47;13.87;;;6.00;99.90;;;;;;5000572;28;20522;-63
2024/01/30 09:00:06;;;;;;;18.40;14.70;;;6.00;99.90;;;;;;4994490;28;21200;-61
2024/01/30 09:02:35;;;;;;;16.27;14.17;;;6.00;99.90;;;;;;4996354;28;21546;-62
2024/01/30 09:05:03;;;;;;;16.73;13.80;;;6.10;99.90;;;;;;4995676;28;20472;-62
2024/01/30 09:07:31;;;;;;;17.90;14.00;;;6.10;99.90;;;;;;4999207;28;20481;-62
2024/01/30 09:09:59;;;;;;;16.60;14.57;;;6.20;99.90;;;;;;4992779;28;20469;-62
2024/01/30 09:12:27;;;;;;;16.93;15.03;;;6.20;99.90;;;;;;4997470;28;20525;-61
2024/01/30 09:14:55;;;;;;;16.00;13.83;;;6.20;99.90;;;;;;4999890;28;20495;-62
2024/01/30 09:17:25;;;;;;;16.50;14.80;;;6.30;99.90;;;;;;4999400;28;20472;-62
2024/01/30 09:19:53;;;;;;;14.90;13.30;;;6.30;99.90;;;;;;5002296;28;20558;-63
2024/01/30 09:22:21;;;;;;;16.77;14.27;;;6.40;99.90;;;;;;5000481;28;20503;-61
2024/01/30 09:24:49;;;;;;;16.50;14.80;;;6.40;99.90;;;;;;5001876;28;20483;-61
2024/01/30 09:27:17;;;;;;;17.57;14.50;;;6.50;99.90;;;;;;5004830;28;20475;-61
2024/01/30 09:29:45;;;;;;;15.87;13.90;;;6.50;99.90;;;;;;5001644;28;20523;-61
2024/01/30 09:32:13;;;;;;;18.90;14.83;;;6.50;99.90;;;;;;4998208;28;20495;-61
2024/01/30 09:34:42;;;;;;;17.90;15.13;;;6.50;99.90;;;;;;5003335;28;20969;-61
2024/01/30 09:37:11;;;;;;;17.73;15.20;;;6.60;99.90;;;;;;5003813;28;20478;-61
2024/01/30 09:39:39;;;;;;;17.17;15.23;;;6.60;99.90;;;;;;4999956;28;20476;-61
2024/01/30 09:42:13;;;;;;;17.50;15.20;;;6.60;99.90;;;;;;5002188;28;20561;-61
2024/01/30 09:44:44;;;;;;;18.03;14.70;;;6.70;99.90;;;;;;5000653;28;21154;-61
2024/01/30 09:47:12;;;;;;;17.20;14.87;;;6.70;99.90;;;;;;4997676;28;20530;-61
2024/01/30 09:49:44;;;;;;;18.63;14.27;;;6.70;99.90;;;;;;5000581;28;20589;-62
2024/01/30 09:52:12;;;;;;;16.80;14.00;;;6.80;99.90;;;;;;4996784;28;20480;-64
2024/01/30 09:54:42;;;;;;;14.80;13.27;;;6.80;99.90;;;;;;4998947;28;20472;-61
2024/01/30 09:57:10;;;;;;;19.47;14.43;;;6.90;99.90;;;;;;4994677;28;20818;-61
2024/01/30 09:59:38;;;;;;;16.30;13.90;;;6.90;99.90;;;;;;4998765;28;20997;-61
2024/01/30 10:02:07;;;;;;;15.60;13.60;;;7.00;99.90;;;;;;5000972;28;20870;-61
2024/01/30 10:04:35;;;;;;;15.80;13.97;;;7.00;99.90;;;;;;4996639;28;20511;-61
2024/01/30 10:07:05;;;;;;;16.30;14.60;;;7.10;99.90;;;;;;4996620;28;21034;-61
2024/01/30 10:09:35;;;;;;;16.57;14.60;;;7.10;99.90;;;;;;4998418;28;20896;-61
2024/01/30 10:12:04;;;;;;;17.17;14.17;;;7.20;99.90;;;;;;5000759;28;20558;-62
2024/01/30 10:14:32;;;;;;;16.00;13.77;;;7.20;99.90;;;;;;4998780;28;20570;-62
2024/01/30 10:17:00;;;;;;;18.90;15.63;;;7.20;99.90;;;;;;5000887;28;20536;-61
2024/01/30 10:19:28;;;;;;;18.37;15.27;;;7.30;99.90;;;;;;4999169;28;20534;-62
2024/01/30 10:21:56;;;;;;;17.13;15.30;;;7.40;99.90;;;;;;4998151;28;20493;-61
2024/01/30 10:24:29;;;;;;;16.80;14.10;;;7.40;99.90;;;;;;4998231;28;20798;-61
2024/01/30 10:26:58;;;;;;;19.97;14.43;;;7.50;99.90;;;;;;4998892;28;20867;-62
2024/01/30 10:29:27;;;;;;;18.60;15.37;;;7.50;99.90;;;;;;4998611;28;20480;-62
2024/01/30 10:32:02;;;;;;;17.13;14.63;;;7.60;99.90;;;;;;4998853;28;20594;-61
2024/01/30 10:34:30;;;;;;;16.83;14.53;;;7.60;99.90;;;;;;5000509;28;20485;-62
2024/01/30 10:37:07;;;;;;;15.77;14.07;;;7.60;99.90;;;;;;5002901;28;20582;-62
2024/01/30 10:39:40;;;;;;;17.83;14.37;;;7.70;99.90;;;;;;4999731;28;20542;-61
2024/01/30 10:42:13;;;;;;;15.67;14.07;;;7.70;99.90;;;;;;4999283;28;21096;-62
2024/01/30 10:44:57;;;;;;;18.03;14.30;;;7.80;99.90;;;;;;5000508;28;20471;-61
2024/01/30 10:47:28;;;;;;;20.77;15.70;;;7.80;99.90;;;;;;5001485;28;20468;-62
2024/01/30 10:49:57;;;;;;;25.67;19.07;;;7.90;99.90;;;;;;4997916;28;20567;-62
2024/01/30 10:52:27;;;;;;;16.90;15.00;;;7.90;99.90;;;;;;5000071;28;20487;-62
2024/01/30 10:54:57;;;;;;;16.67;14.60;;;7.90;99.90;;;;;;4996080;28;20495;-62
2024/01/30 10:57:26;;;;;;;16.03;14.30;;;8.00;99.90;;;;;;5000428;28;20496;-62
2024/01/30 10:59:57;;;;;;;18.03;13.40;;;8.00;99.90;;;;;;4995936;28;20500;-62
2024/01/30 11:02:27;;;;;;;15.93;13.80;;;8.10;99.90;;;;;;4998966;28;21263;-62
2024/01/30 11:04:58;;;;;;;17.20;14.03;;;8.10;99.90;;;;;;4999929;28;20504;-61
2024/01/30 11:07:27;;;;;;;18.87;15.40;;;8.20;99.90;;;;;;4999420;28;20472;-61
2024/01/30 11:10:02;;;;;;;21.20;15.47;;;8.20;99.90;;;;;;4996602;28;20504;-62
2024/01/30 11:12:34;;;;;;;19.80;15.70;;;8.20;99.90;;;;;;4998996;28;20833;-62
2024/01/30 11:15:06;;;;;;;18.73;15.17;;;8.30;99.90;;;;;;4997009;28;20512;-62
2024/01/30 11:17:45;;;;;;;28.00;16.40;;;8.30;99.90;;;;;;4991475;28;20508;-61
2024/01/30 11:20:16;;;;;;;16.43;14.70;;;8.30;99.90;;;;;;4998927;28;20830;-62
2024/01/30 11:22:46;;;;;;;15.77;14.07;;;8.30;99.90;;;;;;4995724;28;20531;-62
2024/01/30 11:25:17;;;;;;;16.17;14.40;;;8.40;99.90;;;;;;4996274;28;20575;-62
2024/01/30 11:27:46;;;;;;;15.57;13.97;;;8.40;99.90;;;;;;4994030;28;20472;-62
2024/01/30 11:30:22;;;;;;;16.10;14.40;;;8.40;99.90;;;;;;4998240;28;20572;-62
2024/01/30 11:33:02;;;;;;;18.37;15.00;;;8.50;99.90;;;;;;4990898;28;20511;-62
2024/01/30 11:35:32;;;;;;;17.03;14.93;;;8.50;99.90;;;;;;4995712;28;20551;-61
2024/01/30 11:38:01;;;;;;;16.17;14.00;;;8.50;99.90;;;;;;4992987;28;20527;-61
2024/01/30 11:40:32;;;;;;;19.13;14.60;;;8.50;99.90;;;;;;4998699;28;20496;-62
2024/01/30 11:43:02;;;;;;;16.30;14.57;;;8.50;99.90;;;;;;4998043;28;20582;-62
2024/01/30 11:45:30;;;;;;;16.70;14.00;;;8.50;99.90;;;;;;4998113;28;20476;-61
2024/01/30 11:48:01;;;;;;;15.47;13.87;;;8.50;99.90;;;;;;4992398;28;20527;-61
2024/01/30 11:50:30;;;;;;;17.83;13.93;;;8.60;99.90;;;;;;4997947;28;20492;-61
2024/01/30 11:52:58;;;;;;;16.57;14.53;;;8.60;99.90;;;;;;4997855;28;20590;-61
2024/01/30 11:55:27;;;;;;;20.20;14.20;;;8.60;99.90;;;;;;4995212;28;20498;-61
2024/01/30 11:58:02;;;;;;;15.23;12.97;;;8.60;99.90;;;;;;4996179;28;20492;-62
2024/01/30 12:00:33;;;;;;;18.27;13.93;;;8.60;99.90;;;;;;4989401;28;20503;-62
2024/01/30 12:03:01;;;;;;;16.30;14.33;;;8.70;99.90;;;;;;4999029;28;20500;-61
2024/01/30 12:05:30;;;;;;;16.40;12.73;;;8.70;99.90;;;;;;4993961;28;20875;-65
2024/01/30 12:07:59;;;;;;;17.37;15.27;;;8.70;99.90;;;;;;4998756;28;20527;-62
2024/01/30 12:10:29;;;;;;;15.67;14.07;;;8.70;99.90;;;;;;4996569;28;21261;-62
2024/01/30 12:12:58;;;;;;;15.53;13.93;;;8.80;99.90;;;;;;5000849;28;20563;-61
2024/01/30 12:15:28;;;;;;;16.33;13.43;;;8.80;99.90;;;;;;4995071;28;20499;-61
2024/01/30 12:18:05;;;;;;;17.00;14.27;;;8.80;99.90;;;;;;4999797;28;20864;-62
2024/01/30 12:20:34;;;;;;;14.47;13.00;;;8.80;99.90;;;;;;4997355;28;20476;-61
2024/01/30 12:23:02;;;;;;;15.23;13.37;;;8.80;99.90;;;;;;4997776;28;20511;-62
2024/01/30 12:25:31;;;;;;;17.47;13.37;;;8.90;99.90;;;;;;4991243;28;20476;-61
2024/01/30 12:27:59;;;;;;;15.70;13.70;;;8.90;99.90;;;;;;4996336;28;20468;-62
2024/01/30 12:30:29;;;;;;;15.77;13.43;;;8.90;99.90;;;;;;4998104;28;20496;-61
2024/01/30 12:32:57;;;;;;;15.10;12.30;;;8.90;99.90;;;;;;4991492;28;20496;-62
2024/01/30 12:35:26;;;;;;;13.53;12.13;;;9.00;99.90;;;;;;4999047;28;20477;-62
2024/01/30 12:37:58;;;;;;;17.13;13.27;;;9.00;99.90;;;;;;4998834;28;20492;-61
2024/01/30 12:40:26;;;;;;;22.97;16.90;;;9.10;99.90;;;;;;4994499;28;20535;-61
2024/01/30 12:42:54;;;;;;;14.43;12.17;;;9.10;99.90;;;;;;5000385;28;20503;-61
2024/01/30 12:45:23;;;;;;;13.10;11.30;;;9.20;99.90;;;;;;4997050;28;20504;-61
2024/01/30 12:47:52;;;;;;;12.63;11.13;;;9.20;99.90;;;;;;4989791;28;20475;-62